sensor_id;sensor_type;location;lat;lon;timestamp;temperature;humidity
28023;DHT22;67403;50.104;8.758;2023-05-03T00:00:58;6.90;99.90
28023;DHT22;67403;50.104;8.758;2023-05-03T00:03:26;6.90;99.90
28023;DHT22;67403;50.104;8.758;2023-05-03T00:05:54;6.90;99.90
28023;DHT22;67403;50.104;8.758;2023-05-03T00:08:21;6.90;99.90
28023;DHT22;67403;50.104;8.758;2023-05-03T00:10:48;6.80;99.90
28023;DHT22;67403;50.104;8.758;2023-05-03T00:13:15;6.70;99.90
28023;DHT22;67403;50.104;8.758;2023-05-03T00:15:41;6.70;99.90
28023;DHT22;67403;50.104;8.758;2023-05-03T00:18:08;6.70;99.90
28023;DHT22;67403;50.104;8.758;2023-05-03T00:20:35;6.70;99.90
28023;DHT22;67403;50.104;8.758;2023-05-03T00:23:04;6.60;99.90
28023;DHT22;67403;50.104;8.758;2023-05-03T00:25:31;6.60;99.90
28023;DHT22;67403;50.104;8.758;2023-05-03T00:27:58;6.60;99.90
28023;DHT22;67403;50.104;8.758;2023-05-03T00:30:25;6.50;99.90
28023;DHT22;67403;50.104;8.758;2023-05-03T00:32:52;6.40;99.90
28023;DHT22;67403;50.104;8.758;2023-05-03T00:35:19;6.40;99.90
28023;DHT22;67403;50.104;8.758;2023-05-03T00:37:46;6.40;99.90
28023;DHT22;67403;50.104;8.758;2023-05-03T00:40:14;6.30;99.90
28023;DHT22;67403;50.104;8.758;2023-05-03T00:42:43;6.20;99.90
28023;DHT22;67403;50.104;8.758;2023-05-03T00:45:11;6.30;99.90
28023;DHT22;67403;50.104;8.758;2023-05-03T00:47:38;6.20;99.90
28023;DHT22;67403;50.104;8.758;2023-05-03T00:50:06;6.20;99.90
28023;DHT22;67403;50.104;8.758;2023-05-03T00:52:36;6.10;99.90
28023;DHT22;67403;50.104;8.758;2023-05-03T00:55:04;6.10;99.90
28023;DHT22;67403;50.104;8.758;2023-05-03T00:57:34;6.10;99.90
28023;DHT22;67403;50.104;8.758;2023-05-03T01:00:01;6.10;99.90
28023;DHT22;67403;50.104;8.758;2023-05-03T01:02:28;6.00;99.90
28023;DHT22;67403;50.104;8.758;2023-05-03T01:04:56;6.00;99.90
28023;DHT22;67403;50.104;8.758;2023-05-03T01:07:29;6.00;99.90
28023;DHT22;67403;50.104;8.758;2023-05-03T01:10:01;6.00;99.90
28023;DHT22;67403;50.104;8.758;2023-05-03T01:12:49;5.90;99.90
28023;DHT22;67403;50.104;8.758;2023-05-03T01:15:26;5.90;99.90
28023;DHT22;67403;50.104;8.758;2023-05-03T01:17:58;5.90;99.90
28023;DHT22;67403;50.104;8.758;2023-05-03T01:20:29;5.90;99.90
28023;DHT22;67403;50.104;8.758;2023-05-03T01:23:04;5.90;99.90
28023;DHT22;67403;50.104;8.758;2023-05-03T01:25:32;5.80;99.90
28023;DHT22;67403;50.104;8.758;2023-05-03T01:27:59;5.80;99.90
28023;DHT22;67403;50.104;8.758;2023-05-03T01:30:27;5.80;99.90
28023;DHT22;67403;50.104;8.758;2023-05-03T01:32:59;5.70;99.90
28023;DHT22;67403;50.104;8.758;2023-05-03T01:35:35;5.80;99.90
28023;DHT22;67403;50.104;8.758;2023-05-03T01:38:03;5.80;99.90
28023;DHT22;67403;50.104;8.758;2023-05-03T01:40:35;5.80;99.90
28023;DHT22;67403;50.104;8.758;2023-05-03T01:43:04;5.70;99.90
28023;DHT22;67403;50.104;8.758;2023-05-03T01:45:32;5.80;99.90
28023;DHT22;67403;50.104;8.758;2023-05-03T01:47:59;5.70;99.90
28023;DHT22;67403;50.104;8.758;2023-05-03T01:50:26;5.70;99.90
28023;DHT22;67403;50.104;8.758;2023-05-03T01:52:53;5.60;99.90
28023;DHT22;67403;50.104;8.758;2023-05-03T01:55:19;5.70;99.90
28023;DHT22;67403;50.104;8.758;2023-05-03T01:57:48;5.70;99.90
28023;DHT22;67403;50.104;8.758;2023-05-03T02:00:15;5.70;99.90
28023;DHT22;67403;50.104;8.758;2023-05-03T02:02:41;5.70;99.90
28023;DHT22;67403;50.104;8.758;2023-05-03T02:05:09;5.70;99.90
28023;DHT22;67403;50.104;8.758;2023-05-03T02:07:36;5.70;99.90
28023;DHT22;67403;50.104;8.758;2023-05-03T02:10:04;5.60;99.90
28023;DHT22;67403;50.104;8.758;2023-05-03T02:12:31;5.60;99.90
28023;DHT22;67403;50.104;8.758;2023-05-03T02:14:59;5.60;99.90
28023;DHT22;67403;50.104;8.758;2023-05-03T02:17:26;5.60;99.90
28023;DHT22;67403;50.104;8.758;2023-05-03T02:19:53;5.60;99.90
28023;DHT22;67403;50.104;8.758;2023-05-03T02:22:20;5.50;99.90
28023;DHT22;67403;50.104;8.758;2023-05-03T02:24:48;5.50;99.90
28023;DHT22;67403;50.104;8.758;2023-05-03T02:27:14;5.50;99.90
28023;DHT22;67403;50.104;8.758;2023-05-03T02:29:42;5.50;99.90
28023;DHT22;67403;50.104;8.758;2023-05-03T02:32:10;5.40;99.90
28023;DHT22;67403;50.104;8.758;2023-05-03T02:34:38;5.40;99.90
28023;DHT22;67403;50.104;8.758;2023-05-03T02:37:06;5.40;99.90
28023;DHT22;67403;50.104;8.758;2023-05-03T02:39:33;5.40;99.90
28023;DHT22;67403;50.104;8.758;2023-05-03T02:42:00;5.40;99.90
28023;DHT22;67403;50.104;8.758;2023-05-03T02:44:27;5.40;99.90
28023;DHT22;67403;50.104;8.758;2023-05-03T02:46:54;5.30;99.90
28023;DHT22;67403;50.104;8.758;2023-05-03T02:49:22;5.30;99.90
28023;DHT22;67403;50.104;8.758;2023-05-03T02:51:49;5.20;99.90
28023;DHT22;67403;50.104;8.758;2023-05-03T02:54:17;5.20;99.90
28023;DHT22;67403;50.104;8.758;2023-05-03T02:56:44;5.20;99.90
28023;DHT22;67403;50.104;8.758;2023-05-03T02:59:11;5.20;99.90
28023;DHT22;67403;50.104;8.758;2023-05-03T03:01:38;5.20;99.90
28023;DHT22;67403;50.104;8.758;2023-05-03T03:04:05;5.20;99.90
28023;DHT22;67403;50.104;8.758;2023-05-03T03:06:34;5.20;99.90
28023;DHT22;67403;50.104;8.758;2023-05-03T03:09:00;5.20;99.90
28023;DHT22;67403;50.104;8.758;2023-05-03T03:11:28;5.20;99.90
28023;DHT22;67403;50.104;8.758;2023-05-03T03:13:55;5.20;99.90
28023;DHT22;67403;50.104;8.758;2023-05-03T03:16:22;5.20;99.90
28023;DHT22;67403;50.104;8.758;2023-05-03T03:18:49;5.10;99.90
28023;DHT22;67403;50.104;8.758;2023-05-03T03:21:15;5.10;99.90
28023;DHT22;67403;50.104;8.758;2023-05-03T03:23:44;5.10;99.90
28023;DHT22;67403;50.104;8.758;2023-05-03T03:26:11;5.10;99.90
28023;DHT22;67403;50.104;8.758;2023-05-03T03:28:38;5.10;99.90
28023;DHT22;67403;50.104;8.758;2023-05-03T03:31:05;5.00;99.90
28023;DHT22;67403;50.104;8.758;2023-05-03T03:33:32;5.00;99.90
28023;DHT22;67403;50.104;8.758;2023-05-03T03:35:59;5.00;99.90
28023;DHT22;67403;50.104;8.758;2023-05-03T03:38:25;5.00;99.90
28023;DHT22;67403;50.104;8.758;2023-05-03T03:40:54;4.90;99.90
28023;DHT22;67403;50.104;8.758;2023-05-03T03:43:21;4.80;99.90
28023;DHT22;67403;50.104;8.758;2023-05-03T03:45:47;4.80;99.90
28023;DHT22;67403;50.104;8.758;2023-05-03T03:48:15;4.80;99.90
28023;DHT22;67403;50.104;8.758;2023-05-03T03:50:42;4.70;99.90
28023;DHT22;67403;50.104;8.758;2023-05-03T03:53:09;4.70;99.90
28023;DHT22;67403;50.104;8.758;2023-05-03T03:55:36;4.70;99.90
28023;DHT22;67403;50.104;8.758;2023-05-03T03:58:04;4.60;99.90
28023;DHT22;67403;50.104;8.758;2023-05-03T04:00:33;4.60;99.90
28023;DHT22;67403;50.104;8.758;2023-05-03T04:03:00;4.60;99.90
28023;DHT22;67403;50.104;8.758;2023-05-03T04:05:27;4.60;99.90
28023;DHT22;67403;50.104;8.758;2023-05-03T04:07:54;4.50;99.90
28023;DHT22;67403;50.104;8.758;2023-05-03T04:10:21;4.50;99.90
28023;DHT22;67403;50.104;8.758;2023-05-03T04:12:48;4.50;99.90
28023;DHT22;67403;50.104;8.758;2023-05-03T04:15:16;4.40;99.90
28023;DHT22;67403;50.104;8.758;2023-05-03T04:17:43;4.50;99.90
28023;DHT22;67403;50.104;8.758;2023-05-03T04:20:11;4.50;99.90
28023;DHT22;67403;50.104;8.758;2023-05-03T04:22:38;4.50;99.90
28023;DHT22;67403;50.104;8.758;2023-05-03T04:25:09;4.50;99.90
28023;DHT22;67403;50.104;8.758;2023-05-03T04:27:38;4.50;99.90
28023;DHT22;67403;50.104;8.758;2023-05-03T04:30:06;4.60;99.90
28023;DHT22;67403;50.104;8.758;2023-05-03T04:32:35;4.60;99.90
28023;DHT22;67403;50.104;8.758;2023-05-03T04:35:06;4.70;99.90
28023;DHT22;67403;50.104;8.758;2023-05-03T04:37:35;4.70;99.90
28023;DHT22;67403;50.104;8.758;2023-05-03T04:40:02;4.70;99.90
28023;DHT22;67403;50.104;8.758;2023-05-03T04:42:33;4.80;99.90
28023;DHT22;67403;50.104;8.758;2023-05-03T04:45:01;4.80;99.90
28023;DHT22;67403;50.104;8.758;2023-05-03T04:47:29;4.90;99.90
28023;DHT22;67403;50.104;8.758;2023-05-03T04:49:57;4.90;99.90
28023;DHT22;67403;50.104;8.758;2023-05-03T04:52:24;4.90;99.90
28023;DHT22;67403;50.104;8.758;2023-05-03T04:54:52;5.00;99.90
28023;DHT22;67403;50.104;8.758;2023-05-03T04:57:19;5.10;99.90
28023;DHT22;67403;50.104;8.758;2023-05-03T04:59:46;5.10;99.90
28023;DHT22;67403;50.104;8.758;2023-05-03T05:02:13;5.20;99.90
28023;DHT22;67403;50.104;8.758;2023-05-03T05:04:40;5.30;99.90
28023;DHT22;67403;50.104;8.758;2023-05-03T05:07:08;5.40;99.90
28023;DHT22;67403;50.104;8.758;2023-05-03T05:09:35;5.50;99.90
28023;DHT22;67403;50.104;8.758;2023-05-03T05:12:02;5.60;99.90
28023;DHT22;67403;50.104;8.758;2023-05-03T05:14:30;5.80;99.90
28023;DHT22;67403;50.104;8.758;2023-05-03T05:16:57;6.00;99.90
28023;DHT22;67403;50.104;8.758;2023-05-03T05:19:24;6.20;99.90
28023;DHT22;67403;50.104;8.758;2023-05-03T05:21:51;6.30;99.90
28023;DHT22;67403;50.104;8.758;2023-05-03T05:24:20;6.50;99.90
28023;DHT22;67403;50.104;8.758;2023-05-03T05:26:46;6.60;99.90
28023;DHT22;67403;50.104;8.758;2023-05-03T05:29:14;6.70;99.90
28023;DHT22;67403;50.104;8.758;2023-05-03T05:31:41;6.40;99.90
28023;DHT22;67403;50.104;8.758;2023-05-03T05:34:08;6.50;99.90
28023;DHT22;67403;50.104;8.758;2023-05-03T05:36:35;6.60;99.90
28023;DHT22;67403;50.104;8.758;2023-05-03T05:39:02;6.60;99.90
28023;DHT22;67403;50.104;8.758;2023-05-03T05:41:30;6.60;99.90
28023;DHT22;67403;50.104;8.758;2023-05-03T05:43:57;6.60;99.90
28023;DHT22;67403;50.104;8.758;2023-05-03T05:46:24;6.60;99.90
28023;DHT22;67403;50.104;8.758;2023-05-03T05:48:51;6.70;99.90
28023;DHT22;67403;50.104;8.758;2023-05-03T05:51:19;6.60;99.90
28023;DHT22;67403;50.104;8.758;2023-05-03T05:53:46;6.40;99.90
28023;DHT22;67403;50.104;8.758;2023-05-03T05:56:13;6.50;99.90
28023;DHT22;67403;50.104;8.758;2023-05-03T05:58:41;6.60;99.90
28023;DHT22;67403;50.104;8.758;2023-05-03T06:01:08;6.70;99.90
28023;DHT22;67403;50.104;8.758;2023-05-03T06:03:35;6.80;99.90
28023;DHT22;67403;50.104;8.758;2023-05-03T06:06:02;6.60;99.90
28023;DHT22;67403;50.104;8.758;2023-05-03T06:08:29;6.80;99.90
28023;DHT22;67403;50.104;8.758;2023-05-03T06:10:56;6.90;99.90
28023;DHT22;67403;50.104;8.758;2023-05-03T06:13:23;7.10;99.90
28023;DHT22;67403;50.104;8.758;2023-05-03T06:15:51;7.40;99.90
28023;DHT22;67403;50.104;8.758;2023-05-03T06:18:18;7.30;99.90
28023;DHT22;67403;50.104;8.758;2023-05-03T06:20:48;7.20;99.90
28023;DHT22;67403;50.104;8.758;2023-05-03T06:23:15;7.30;99.90
28023;DHT22;67403;50.104;8.758;2023-05-03T06:25:44;7.50;99.90
28023;DHT22;67403;50.104;8.758;2023-05-03T06:28:11;7.70;99.90
28023;DHT22;67403;50.104;8.758;2023-05-03T06:30:38;8.00;99.90
28023;DHT22;67403;50.104;8.758;2023-05-03T06:33:11;8.00;99.90
28023;DHT22;67403;50.104;8.758;2023-05-03T06:35:38;7.90;99.90
28023;DHT22;67403;50.104;8.758;2023-05-03T06:38:05;7.90;99.90
28023;DHT22;67403;50.104;8.758;2023-05-03T06:40:33;8.10;99.90
28023;DHT22;67403;50.104;8.758;2023-05-03T06:43:00;8.40;99.90
28023;DHT22;67403;50.104;8.758;2023-05-03T06:45:27;8.00;99.90
28023;DHT22;67403;50.104;8.758;2023-05-03T06:47:53;8.30;99.90
28023;DHT22;67403;50.104;8.758;2023-05-03T06:50:22;8.60;99.90
28023;DHT22;67403;50.104;8.758;2023-05-03T06:52:49;8.90;99.90
28023;DHT22;67403;50.104;8.758;2023-05-03T06:55:16;9.00;99.90
28023;DHT22;67403;50.104;8.758;2023-05-03T06:57:43;9.20;99.90
28023;DHT22;67403;50.104;8.758;2023-05-03T07:00:13;9.30;99.90
28023;DHT22;67403;50.104;8.758;2023-05-03T07:03:00;9.00;99.90
28023;DHT22;67403;50.104;8.758;2023-05-03T07:05:47;8.90;99.90
28023;DHT22;67403;50.104;8.758;2023-05-03T07:08:14;9.20;99.90
28023;DHT22;67403;50.104;8.758;2023-05-03T07:10:41;9.20;99.90
28023;DHT22;67403;50.104;8.758;2023-05-03T07:13:07;9.10;99.90
28023;DHT22;67403;50.104;8.758;2023-05-03T07:15:34;9.40;99.90
28023;DHT22;67403;50.104;8.758;2023-05-03T07:18:02;9.50;99.90
28023;DHT22;67403;50.104;8.758;2023-05-03T07:20:29;9.80;99.90
28023;DHT22;67403;50.104;8.758;2023-05-03T07:22:57;9.80;99.90
28023;DHT22;67403;50.104;8.758;2023-05-03T07:25:26;9.70;99.90
28023;DHT22;67403;50.104;8.758;2023-05-03T07:27:53;9.70;99.90
28023;DHT22;67403;50.104;8.758;2023-05-03T07:30:20;10.00;99.90
28023;DHT22;67403;50.104;8.758;2023-05-03T07:32:47;10.30;99.90
28023;DHT22;67403;50.104;8.758;2023-05-03T07:35:15;10.20;99.90
28023;DHT22;67403;50.104;8.758;2023-05-03T07:37:42;10.30;99.90
28023;DHT22;67403;50.104;8.758;2023-05-03T07:40:11;10.30;99.90
28023;DHT22;67403;50.104;8.758;2023-05-03T07:42:38;9.80;99.90
28023;DHT22;67403;50.104;8.758;2023-05-03T07:45:06;10.00;99.90
28023;DHT22;67403;50.104;8.758;2023-05-03T07:47:33;10.00;99.90
28023;DHT22;67403;50.104;8.758;2023-05-03T07:50:03;10.20;99.90
28023;DHT22;67403;50.104;8.758;2023-05-03T07:52:34;10.40;99.90
28023;DHT22;67403;50.104;8.758;2023-05-03T07:55:01;10.20;99.90
28023;DHT22;67403;50.104;8.758;2023-05-03T07:57:31;10.10;99.90
28023;DHT22;67403;50.104;8.758;2023-05-03T07:59:58;10.20;99.90
28023;DHT22;67403;50.104;8.758;2023-05-03T08:02:25;10.20;99.90
28023;DHT22;67403;50.104;8.758;2023-05-03T08:04:52;10.30;99.90
28023;DHT22;67403;50.104;8.758;2023-05-03T08:07:19;10.50;99.90
28023;DHT22;67403;50.104;8.758;2023-05-03T08:09:46;10.60;99.90
28023;DHT22;67403;50.104;8.758;2023-05-03T08:12:14;10.70;99.90
28023;DHT22;67403;50.104;8.758;2023-05-03T08:14:42;10.70;99.90
28023;DHT22;67403;50.104;8.758;2023-05-03T08:17:09;10.70;99.90
28023;DHT22;67403;50.104;8.758;2023-05-03T08:19:36;10.70;99.90
28023;DHT22;67403;50.104;8.758;2023-05-03T08:22:03;11.00;99.90
28023;DHT22;67403;50.104;8.758;2023-05-03T08:24:30;11.30;99.90
28023;DHT22;67403;50.104;8.758;2023-05-03T08:26:57;11.10;99.90
28023;DHT22;67403;50.104;8.758;2023-05-03T08:29:24;11.30;99.90
28023;DHT22;67403;50.104;8.758;2023-05-03T08:31:53;11.40;99.90
28023;DHT22;67403;50.104;8.758;2023-05-03T08:34:20;11.40;99.90
28023;DHT22;67403;50.104;8.758;2023-05-03T08:36:47;11.30;99.90
28023;DHT22;67403;50.104;8.758;2023-05-03T08:39:14;11.40;99.90
28023;DHT22;67403;50.104;8.758;2023-05-03T08:41:41;11.60;99.90
28023;DHT22;67403;50.104;8.758;2023-05-03T08:44:11;11.90;99.90
28023;DHT22;67403;50.104;8.758;2023-05-03T08:46:42;11.80;99.90
28023;DHT22;67403;50.104;8.758;2023-05-03T08:49:11;12.00;99.90
28023;DHT22;67403;50.104;8.758;2023-05-03T08:51:39;12.10;99.90
28023;DHT22;67403;50.104;8.758;2023-05-03T08:54:07;11.80;99.90
28023;DHT22;67403;50.104;8.758;2023-05-03T08:56:39;11.70;99.90
28023;DHT22;67403;50.104;8.758;2023-05-03T08:59:06;11.90;99.90
28023;DHT22;67403;50.104;8.758;2023-05-03T09:01:34;12.00;99.90
28023;DHT22;67403;50.104;8.758;2023-05-03T09:04:02;12.00;99.90
28023;DHT22;67403;50.104;8.758;2023-05-03T09:06:30;12.30;99.90
28023;DHT22;67403;50.104;8.758;2023-05-03T09:08:59;12.70;99.90
28023;DHT22;67403;50.104;8.758;2023-05-03T09:11:27;12.90;99.90
28023;DHT22;67403;50.104;8.758;2023-05-03T09:14:07;12.80;99.90
28023;DHT22;67403;50.104;8.758;2023-05-03T09:16:35;12.80;99.90
28023;DHT22;67403;50.104;8.758;2023-05-03T09:19:03;13.00;99.90
28023;DHT22;67403;50.104;8.758;2023-05-03T09:21:34;13.30;99.90
28023;DHT22;67403;50.104;8.758;2023-05-03T09:24:09;13.20;99.90
28023;DHT22;67403;50.104;8.758;2023-05-03T09:26:37;13.30;99.90
28023;DHT22;67403;50.104;8.758;2023-05-03T09:29:05;13.10;99.90
28023;DHT22;67403;50.104;8.758;2023-05-03T09:31:33;13.00;99.90
28023;DHT22;67403;50.104;8.758;2023-05-03T09:34:01;13.00;99.90
28023;DHT22;67403;50.104;8.758;2023-05-03T09:36:45;13.20;99.90
28023;DHT22;67403;50.104;8.758;2023-05-03T09:39:16;13.30;99.90
28023;DHT22;67403;50.104;8.758;2023-05-03T09:41:43;13.40;99.90
28023;DHT22;67403;50.104;8.758;2023-05-03T09:44:10;13.50;99.90
28023;DHT22;67403;50.104;8.758;2023-05-03T09:46:37;13.80;99.90
28023;DHT22;67403;50.104;8.758;2023-05-03T09:49:04;13.70;99.90
28023;DHT22;67403;50.104;8.758;2023-05-03T09:51:32;13.80;99.90
28023;DHT22;67403;50.104;8.758;2023-05-03T09:54:01;13.90;99.90
28023;DHT22;67403;50.104;8.758;2023-05-03T09:56:29;13.70;99.90
28023;DHT22;67403;50.104;8.758;2023-05-03T09:58:56;14.00;99.90
28023;DHT22;67403;50.104;8.758;2023-05-03T10:01:23;13.90;99.90
28023;DHT22;67403;50.104;8.758;2023-05-03T10:03:51;13.90;99.90
28023;DHT22;67403;50.104;8.758;2023-05-03T10:06:23;14.40;99.90
28023;DHT22;67403;50.104;8.758;2023-05-03T10:08:52;15.10;99.90
28023;DHT22;67403;50.104;8.758;2023-05-03T10:11:26;15.40;99.90
28023;DHT22;67403;50.104;8.758;2023-05-03T10:13:53;16.40;99.90
28023;DHT22;67403;50.104;8.758;2023-05-03T10:16:25;16.20;99.90
28023;DHT22;67403;50.104;8.758;2023-05-03T10:19:08;16.80;99.90
28023;DHT22;67403;50.104;8.758;2023-05-03T10:21:50;18.00;99.90
28023;DHT22;67403;50.104;8.758;2023-05-03T10:24:18;17.00;99.90
28023;DHT22;67403;50.104;8.758;2023-05-03T10:26:49;17.70;99.90
28023;DHT22;67403;50.104;8.758;2023-05-03T10:29:44;16.50;99.90
28023;DHT22;67403;50.104;8.758;2023-05-03T10:32:32;17.00;99.90
28023;DHT22;67403;50.104;8.758;2023-05-03T10:35:01;17.20;99.90
28023;DHT22;67403;50.104;8.758;2023-05-03T10:37:28;17.80;99.90
28023;DHT22;67403;50.104;8.758;2023-05-03T10:39:55;17.80;97.80
28023;DHT22;67403;50.104;8.758;2023-05-03T10:42:32;17.70;98.90
28023;DHT22;67403;50.104;8.758;2023-05-03T10:44:59;18.80;94.60
28023;DHT22;67403;50.104;8.758;2023-05-03T10:47:28;19.70;91.90
28023;DHT22;67403;50.104;8.758;2023-05-03T10:50:23;18.80;92.90
28023;DHT22;67403;50.104;8.758;2023-05-03T10:52:50;18.30;95.60
28023;DHT22;67403;50.104;8.758;2023-05-03T10:55:19;19.10;91.80
28023;DHT22;67403;50.104;8.758;2023-05-03T10:57:48;20.10;90.00
28023;DHT22;67403;50.104;8.758;2023-05-03T11:00:21;20.20;86.80
28023;DHT22;67403;50.104;8.758;2023-05-03T11:03:10;18.60;89.90
28023;DHT22;67403;50.104;8.758;2023-05-03T11:05:39;19.30;87.20
28023;DHT22;67403;50.104;8.758;2023-05-03T11:08:10;21.50;79.60
28023;DHT22;67403;50.104;8.758;2023-05-03T11:10:37;20.90;76.10
28023;DHT22;67403;50.104;8.758;2023-05-03T11:13:06;21.00;74.50
28023;DHT22;67403;50.104;8.758;2023-05-03T11:15:34;21.30;73.50
28023;DHT22;67403;50.104;8.758;2023-05-03T11:18:01;21.70;69.80
28023;DHT22;67403;50.104;8.758;2023-05-03T11:20:28;22.80;65.90
28023;DHT22;67403;50.104;8.758;2023-05-03T11:22:55;22.80;60.80
28023;DHT22;67403;50.104;8.758;2023-05-03T11:25:22;23.70;60.90
28023;DHT22;67403;50.104;8.758;2023-05-03T11:27:49;22.80;57.90
28023;DHT22;67403;50.104;8.758;2023-05-03T11:30:18;22.90;60.30
28023;DHT22;67403;50.104;8.758;2023-05-03T11:32:44;21.20;61.20
28023;DHT22;67403;50.104;8.758;2023-05-03T11:35:13;21.60;60.80
28023;DHT22;67403;50.104;8.758;2023-05-03T11:37:42;20.40;63.40
28023;DHT22;67403;50.104;8.758;2023-05-03T11:40:14;20.50;64.50
28023;DHT22;67403;50.104;8.758;2023-05-03T11:42:51;22.00;62.00
28023;DHT22;67403;50.104;8.758;2023-05-03T11:45:21;22.20;58.10
28023;DHT22;67403;50.104;8.758;2023-05-03T11:47:49;21.10;59.50
28023;DHT22;67403;50.104;8.758;2023-05-03T11:50:17;21.50;57.80
28023;DHT22;67403;50.104;8.758;2023-05-03T11:52:44;20.60;59.10
28023;DHT22;67403;50.104;8.758;2023-05-03T11:55:11;21.20;59.50
28023;DHT22;67403;50.104;8.758;2023-05-03T11:57:38;21.10;59.50
28023;DHT22;67403;50.104;8.758;2023-05-03T12:00:11;22.10;59.40
28023;DHT22;67403;50.104;8.758;2023-05-03T12:02:46;24.00;54.20
28023;DHT22;67403;50.104;8.758;2023-05-03T12:05:14;23.10;54.40
28023;DHT22;67403;50.104;8.758;2023-05-03T12:07:41;22.20;57.10
28023;DHT22;67403;50.104;8.758;2023-05-03T12:10:15;22.40;56.90
28023;DHT22;67403;50.104;8.758;2023-05-03T12:12:53;23.30;54.90
28023;DHT22;67403;50.104;8.758;2023-05-03T12:15:28;24.10;54.30
28023;DHT22;67403;50.104;8.758;2023-05-03T12:17:57;22.30;55.80
28023;DHT22;67403;50.104;8.758;2023-05-03T12:20:25;21.70;56.10
28023;DHT22;67403;50.104;8.758;2023-05-03T12:22:57;24.10;55.70
28023;DHT22;67403;50.104;8.758;2023-05-03T12:25:24;23.90;54.70
28023;DHT22;67403;50.104;8.758;2023-05-03T12:27:52;22.40;56.60
28023;DHT22;67403;50.104;8.758;2023-05-03T12:30:19;23.50;56.00
28023;DHT22;67403;50.104;8.758;2023-05-03T12:32:47;24.00;54.00
28023;DHT22;67403;50.104;8.758;2023-05-03T12:35:17;22.30;57.30
28023;DHT22;67403;50.104;8.758;2023-05-03T12:37:45;24.10;54.20
28023;DHT22;67403;50.104;8.758;2023-05-03T12:40:13;24.10;53.20
28023;DHT22;67403;50.104;8.758;2023-05-03T12:42:41;24.50;52.50
28023;DHT22;67403;50.104;8.758;2023-05-03T12:45:09;22.90;54.80
28023;DHT22;67403;50.104;8.758;2023-05-03T12:47:36;22.50;54.80
28023;DHT22;67403;50.104;8.758;2023-05-03T12:50:04;22.40;54.80
28023;DHT22;67403;50.104;8.758;2023-05-03T12:52:32;23.70;54.40
28023;DHT22;67403;50.104;8.758;2023-05-03T12:54:59;24.00;52.60
28023;DHT22;67403;50.104;8.758;2023-05-03T12:57:26;23.30;52.90
28023;DHT22;67403;50.104;8.758;2023-05-03T12:59:52;25.40;51.80
28023;DHT22;67403;50.104;8.758;2023-05-03T13:02:20;24.70;50.90
28023;DHT22;67403;50.104;8.758;2023-05-03T13:04:47;24.90;50.50
28023;DHT22;67403;50.104;8.758;2023-05-03T13:07:20;24.10;52.20
28023;DHT22;67403;50.104;8.758;2023-05-03T13:09:48;24.10;51.50
28023;DHT22;67403;50.104;8.758;2023-05-03T13:12:15;23.90;51.60
28023;DHT22;67403;50.104;8.758;2023-05-03T13:14:44;24.40;51.80
28023;DHT22;67403;50.104;8.758;2023-05-03T13:17:12;24.50;51.30
28023;DHT22;67403;50.104;8.758;2023-05-03T13:19:39;24.20;50.50
28023;DHT22;67403;50.104;8.758;2023-05-03T13:22:07;23.90;50.20
28023;DHT22;67403;50.104;8.758;2023-05-03T13:24:34;23.10;50.40
28023;DHT22;67403;50.104;8.758;2023-05-03T13:27:02;23.10;52.20
28023;DHT22;67403;50.104;8.758;2023-05-03T13:29:30;24.00;51.80
28023;DHT22;67403;50.104;8.758;2023-05-03T13:31:57;24.20;50.80
28023;DHT22;67403;50.104;8.758;2023-05-03T13:34:23;25.30;48.20
28023;DHT22;67403;50.104;8.758;2023-05-03T13:36:50;25.30;48.20
28023;DHT22;67403;50.104;8.758;2023-05-03T13:39:17;25.90;47.30
28023;DHT22;67403;50.104;8.758;2023-05-03T13:41:44;24.90;48.20
28023;DHT22;67403;50.104;8.758;2023-05-03T13:44:12;26.50;47.50
28023;DHT22;67403;50.104;8.758;2023-05-03T13:46:39;24.10;49.00
28023;DHT22;67403;50.104;8.758;2023-05-03T13:49:08;25.90;47.60
28023;DHT22;67403;50.104;8.758;2023-05-03T13:51:36;26.20;45.90
28023;DHT22;67403;50.104;8.758;2023-05-03T13:54:04;25.20;47.60
28023;DHT22;67403;50.104;8.758;2023-05-03T13:56:32;27.70;44.80
28023;DHT22;67403;50.104;8.758;2023-05-03T13:58:59;24.70;46.70
28023;DHT22;67403;50.104;8.758;2023-05-03T14:01:27;24.50;47.80
28023;DHT22;67403;50.104;8.758;2023-05-03T14:03:55;25.00;46.80
28023;DHT22;67403;50.104;8.758;2023-05-03T14:06:22;25.10;46.50
28023;DHT22;67403;50.104;8.758;2023-05-03T14:08:49;27.00;44.40
28023;DHT22;67403;50.104;8.758;2023-05-03T14:11:17;27.80;43.80
28023;DHT22;67403;50.104;8.758;2023-05-03T14:13:45;26.70;43.80
28023;DHT22;67403;50.104;8.758;2023-05-03T14:16:15;28.50;42.60
28023;DHT22;67403;50.104;8.758;2023-05-03T14:18:43;28.70;41.10
28023;DHT22;67403;50.104;8.758;2023-05-03T14:21:11;27.70;42.10
28023;DHT22;67403;50.104;8.758;2023-05-03T14:23:38;26.90;41.60
28023;DHT22;67403;50.104;8.758;2023-05-03T14:26:06;27.00;42.60
28023;DHT22;67403;50.104;8.758;2023-05-03T14:28:32;26.20;42.90
28023;DHT22;67403;50.104;8.758;2023-05-03T14:31:00;26.00;43.30
28023;DHT22;67403;50.104;8.758;2023-05-03T14:33:27;24.60;45.10
28023;DHT22;67403;50.104;8.758;2023-05-03T14:35:55;24.70;45.90
28023;DHT22;67403;50.104;8.758;2023-05-03T14:38:22;25.40;44.10
28023;DHT22;67403;50.104;8.758;2023-05-03T14:40:50;24.60;45.10
28023;DHT22;67403;50.104;8.758;2023-05-03T14:43:17;26.70;43.80
28023;DHT22;67403;50.104;8.758;2023-05-03T14:45:44;27.50;42.40
28023;DHT22;67403;50.104;8.758;2023-05-03T14:48:12;27.70;41.50
28023;DHT22;67403;50.104;8.758;2023-05-03T14:50:40;28.30;40.20
28023;DHT22;67403;50.104;8.758;2023-05-03T14:53:08;26.10;41.80
28023;DHT22;67403;50.104;8.758;2023-05-03T14:55:35;24.60;44.20
28023;DHT22;67403;50.104;8.758;2023-05-03T14:58:02;25.10;45.00
28023;DHT22;67403;50.104;8.758;2023-05-03T15:00:29;25.20;43.20
28023;DHT22;67403;50.104;8.758;2023-05-03T15:02:56;26.50;42.60
28023;DHT22;67403;50.104;8.758;2023-05-03T15:05:22;25.20;43.30
28023;DHT22;67403;50.104;8.758;2023-05-03T15:07:49;25.40;42.80
28023;DHT22;67403;50.104;8.758;2023-05-03T15:10:19;24.80;43.60
28023;DHT22;67403;50.104;8.758;2023-05-03T15:12:46;24.60;44.60
28023;DHT22;67403;50.104;8.758;2023-05-03T15:15:13;24.80;43.80
28023;DHT22;67403;50.104;8.758;2023-05-03T15:17:40;25.90;43.50
28023;DHT22;67403;50.104;8.758;2023-05-03T15:20:08;26.00;42.00
28023;DHT22;67403;50.104;8.758;2023-05-03T15:22:38;25.10;43.30
28023;DHT22;67403;50.104;8.758;2023-05-03T15:25:05;25.90;42.90
28023;DHT22;67403;50.104;8.758;2023-05-03T15:27:34;26.70;41.60
28023;DHT22;67403;50.104;8.758;2023-05-03T15:30:01;25.50;42.40
28023;DHT22;67403;50.104;8.758;2023-05-03T15:32:28;24.50;43.30
28023;DHT22;67403;50.104;8.758;2023-05-03T15:34:55;24.10;44.60
28023;DHT22;67403;50.104;8.758;2023-05-03T15:37:32;23.10;45.40
28023;DHT22;67403;50.104;8.758;2023-05-03T15:40:00;24.10;45.70
28023;DHT22;67403;50.104;8.758;2023-05-03T15:42:28;23.90;45.40
28023;DHT22;67403;50.104;8.758;2023-05-03T15:44:56;24.20;44.30